Time;durP1;ratioP1;P1;durP2;ratioP2;P2;SDS_P1;SDS_P2;PMS_P1;PMS_P2;Temp;Humidity;BMP_temperature;BMP_pressure;BME280_temperature;BME280_humidity;BME280_pressure;Samples;Min_cycle;Max_cycle;Signal;HPM_P1;HPM_P2
2023/08/02 00:00:29;;;;;;;6.55;3.60;;;;;;;;;;5055228;28;20468;-75
2023/08/02 00:02:55;;;;;;;6.43;3.17;;;;;;;;;;5055403;28;20056;-76
2023/08/02 00:05:21;;;;;;;9.18;3.47;;;;;;;;;;5055336;28;20464;-76
2023/08/02 00:07:47;;;;;;;6.60;3.17;;;;;;;;;;5055272;28;20074;-75
2023/08/02 00:10:13;;;;;;;6.85;3.47;;;;;;;;;;5055363;28;20484;-75
2023/08/02 00:12:39;;;;;;;9.82;3.65;;;;;;;;;;5055111;28;20040;-76
2023/08/02 00:15:06;;;;;;;5.15;3.25;;;;;;;;;;5054867;28;20171;-75
2023/08/02 00:17:32;;;;;;;6.38;3.03;;;;;;;;;;5055127;28;20049;-75
2023/08/02 00:19:58;;;;;;;6.57;3.60;;;;;;;;;;5055085;28;20549;-75
2023/08/02 00:22:24;;;;;;;9.10;3.63;;;;;;;;;;5055075;28;20028;-76
2023/08/02 00:24:50;;;;;;;9.70;3.97;;;;;;;;;;5054926;28;20388;-75
2023/08/02 00:27:16;;;;;;;11.70;4.68;;;;;;;;;;5054661;28;20033;-75
2023/08/02 00:29:42;;;;;;;8.60;4.57;;;;;;;;;;5054989;28;20471;-75
2023/08/02 00:32:08;;;;;;;8.10;4.32;;;;;;;;;;5054784;28;20460;-75
2023/08/02 00:34:34;;;;;;;8.82;4.88;;;;;;;;;;5054501;28;20060;-75
2023/08/02 00:37:01;;;;;;;11.65;5.63;;;;;;;;;;5054849;28;20112;-75
2023/08/02 00:39:27;;;;;;;10.77;4.90;;;;;;;;;;5054998;28;20029;-75
2023/08/02 00:41:53;;;;;;;7.40;5.00;;;;;;;;;;5054710;28;20029;-75
2023/08/02 00:44:19;;;;;;;8.82;4.07;;;;;;;;;;5054590;28;20025;-76
2023/08/02 00:46:45;;;;;;;9.75;5.00;;;;;;;;;;5054582;28;20033;-75
2023/08/02 00:49:11;;;;;;;9.80;5.15;;;;;;;;;;5054567;28;20029;-75
2023/08/02 00:51:38;;;;;;;8.00;4.65;;;;;;;;;;5054356;28;20123;-75
2023/08/02 00:54:05;;;;;;;8.13;4.80;;;;;;;;;;5054442;28;20025;-75
2023/08/02 00:56:31;;;;;;;8.57;4.97;;;;;;;;;;5054678;28;20075;-76
2023/08/02 00:58:57;;;;;;;9.68;5.22;;;;;;;;;;5054390;28;20021;-76
2023/08/02 01:01:24;;;;;;;8.88;5.13;;;;;;;;;;5054345;28;20087;-76
2023/08/02 01:03:50;;;;;;;9.52;5.03;;;;;;;;;;5054224;28;20055;-76
2023/08/02 01:06:29;;;;;;;9.27;5.53;;;;;;;;;;5054222;28;20044;-76
2023/08/02 01:09:00;;;;;;;11.43;5.78;;;;;;;;;;5054130;28;20559;-76
2023/08/02 01:11:32;;;;;;;10.88;5.82;;;;;;;;;;5054076;28;20033;-76
2023/08/02 01:13:59;;;;;;;12.63;5.72;;;;;;;;;;5053767;28;20505;-76
2023/08/02 01:16:26;;;;;;;9.38;5.40;;;;;;;;;;5054067;28;20044;-75
2023/08/02 01:18:52;;;;;;;11.38;5.70;;;;;;;;;;5054120;28;20058;-76
2023/08/02 01:21:18;;;;;;;10.07;6.05;;;;;;;;;;5053939;28;20025;-76
2023/08/02 01:23:44;;;;;;;8.32;5.78;;;;;;;;;;5053860;28;20025;-75
2023/08/02 01:26:11;;;;;;;12.23;5.90;;;;;;;;;;5054100;28;20032;-75
2023/08/02 01:28:39;;;;;;;12.15;5.80;;;;;;;;;;5053710;28;20541;-76
2023/08/02 01:31:06;;;;;;;13.07;6.10;;;;;;;;;;5054009;28;20029;-75
2023/08/02 01:33:36;;;;;;;11.88;6.47;;;;;;;;;;5053584;28;20655;-75
2023/08/02 01:36:02;;;;;;;10.32;5.80;;;;;;;;;;5053754;28;20044;-75
2023/08/02 01:38:28;;;;;;;9.40;6.00;;;;;;;;;;5053643;28;20103;-75
2023/08/02 01:40:54;;;;;;;14.02;6.70;;;;;;;;;;5053862;28;20033;-75
2023/08/02 01:43:20;;;;;;;12.75;6.53;;;;;;;;;;5053504;28;20083;-75
2023/08/02 01:45:46;;;;;;;11.07;6.22;;;;;;;;;;5053114;28;20064;-76
2023/08/02 01:48:12;;;;;;;9.02;5.32;;;;;;;;;;5053072;28;20036;-76
2023/08/02 01:50:38;;;;;;;8.48;5.47;;;;;;;;;;5053376;28;20025;-75
2023/08/02 01:53:04;;;;;;;9.07;5.22;;;;;;;;;;5053479;28;20037;-76
2023/08/02 01:55:30;;;;;;;11.93;5.78;;;;;;;;;;5053266;28;20052;-75
2023/08/02 01:57:56;;;;;;;8.43;5.13;;;;;;;;;;5053041;28;20052;-76
2023/08/02 02:00:22;;;;;;;9.52;5.68;;;;;;;;;;5053255;28;20109;-76
2023/08/02 02:02:49;;;;;;;14.38;5.60;;;;;;;;;;5053267;28;20663;-76
2023/08/02 02:05:15;;;;;;;10.65;5.43;;;;;;;;;;5053382;28;20029;-76
2023/08/02 02:07:41;;;;;;;12.35;6.32;;;;;;;;;;5052982;28;20040;-76
2023/08/02 02:10:07;;;;;;;10.82;5.45;;;;;;;;;;5053034;28;20029;-75
2023/08/02 02:12:33;;;;;;;8.10;5.22;;;;;;;;;;5052866;28;20041;-76
2023/08/02 02:14:59;;;;;;;11.20;5.32;;;;;;;;;;5052628;28;20480;-76
2023/08/02 02:17:25;;;;;;;11.85;5.80;;;;;;;;;;5052780;28;20067;-75
2023/08/02 02:19:51;;;;;;;9.38;5.43;;;;;;;;;;5052863;28;20460;-75
2023/08/02 02:22:17;;;;;;;11.73;5.80;;;;;;;;;;5052786;28;20036;-75
2023/08/02 02:24:43;;;;;;;7.57;5.18;;;;;;;;;;5052676;28;20061;-75
2023/08/02 02:27:09;;;;;;;11.80;5.28;;;;;;;;;;5053053;28;20017;-75
2023/08/02 02:29:35;;;;;;;9.27;4.97;;;;;;;;;;5052674;28;20025;-75
2023/08/02 02:32:01;;;;;;;10.82;5.70;;;;;;;;;;5052580;28;20112;-75
2023/08/02 02:34:27;;;;;;;9.18;5.15;;;;;;;;;;5052622;28;20060;-75
2023/08/02 02:36:53;;;;;;;12.20;5.07;;;;;;;;;;5052516;28;20021;-76
2023/08/02 02:39:19;;;;;;;12.25;5.40;;;;;;;;;;5052502;28;20021;-75
2023/08/02 02:41:45;;;;;;;11.82;5.97;;;;;;;;;;5052461;28;20033;-75
2023/08/02 02:44:12;;;;;;;13.23;5.18;;;;;;;;;;5052541;28;20464;-75
2023/08/02 02:46:39;;;;;;;14.73;5.47;;;;;;;;;;5052498;28;20494;-76
2023/08/02 02:49:05;;;;;;;15.23;5.20;;;;;;;;;;5052877;28;20017;-76
2023/08/02 02:51:31;;;;;;;9.85;4.88;;;;;;;;;;5052544;28;20048;-76
2023/08/02 02:53:56;;;;;;;14.15;5.60;;;;;;;;;;5052444;28;20021;-76
2023/08/02 02:56:22;;;;;;;11.30;5.00;;;;;;;;;;5052298;28;20380;-76
2023/08/02 02:58:48;;;;;;;15.68;5.22;;;;;;;;;;5052223;28;20025;-76
2023/08/02 03:01:14;;;;;;;18.67;5.15;;;;;;;;;;5052370;28;20027;-76
2023/08/02 03:03:40;;;;;;;16.08;5.13;;;;;;;;;;5052269;28;20614;-75
2023/08/02 03:06:06;;;;;;;16.20;5.70;;;;;;;;;;5052252;28;20640;-76
2023/08/02 03:08:32;;;;;;;17.63;5.80;;;;;;;;;;5052221;28;20083;-75
2023/08/02 03:10:58;;;;;;;16.55;5.72;;;;;;;;;;5052183;28;20025;-76
2023/08/02 03:13:24;;;;;;;16.48;5.43;;;;;;;;;;5052083;28;20116;-75
2023/08/02 03:15:50;;;;;;;21.42;5.82;;;;;;;;;;5052390;28;20132;-76
2023/08/02 03:18:16;;;;;;;15.38;5.50;;;;;;;;;;5052160;28;20036;-75
2023/08/02 03:20:43;;;;;;;18.80;5.93;;;;;;;;;;5052030;28;20025;-75
2023/08/02 03:23:09;;;;;;;18.38;6.72;;;;;;;;;;5052056;28;20020;-76
2023/08/02 03:25:35;;;;;;;19.10;6.57;;;;;;;;;;5052286;28;20040;-76
2023/08/02 03:28:01;;;;;;;16.55;6.10;;;;;;;;;;5052072;28;20040;-76
2023/08/02 03:30:27;;;;;;;14.80;5.15;;;;;;;;;;5052079;28;20040;-75
2023/08/02 03:32:54;;;;;;;21.50;6.20;;;;;;;;;;5051943;28;20029;-76
2023/08/02 03:35:20;;;;;;;19.38;5.88;;;;;;;;;;5051948;28;20025;-76
2023/08/02 03:37:46;;;;;;;17.33;5.75;;;;;;;;;;5051831;28;20032;-75
2023/08/02 03:40:12;;;;;;;22.10;5.70;;;;;;;;;;5051927;28;20440;-76
2023/08/02 03:42:38;;;;;;;18.05;5.95;;;;;;;;;;5051899;28;20029;-76
2023/08/02 03:45:04;;;;;;;19.92;5.88;;;;;;;;;;5051802;28;20487;-75
2023/08/02 03:47:30;;;;;;;21.45;5.60;;;;;;;;;;5051787;28;20075;-76
2023/08/02 03:49:56;;;;;;;20.63;5.90;;;;;;;;;;5051814;28;20037;-75
2023/08/02 03:52:22;;;;;;;14.73;5.60;;;;;;;;;;5051722;28;20532;-76
2023/08/02 03:54:48;;;;;;;26.05;6.00;;;;;;;;;;5051846;28;20349;-76
2023/08/02 03:57:14;;;;;;;17.15;6.05;;;;;;;;;;5051836;28;20083;-76
2023/08/02 03:59:40;;;;;;;17.85;5.95;;;;;;;;;;5051739;28;20047;-76
2023/08/02 04:02:06;;;;;;;19.42;5.57;;;;;;;;;;5051903;28;20035;-76
2023/08/02 04:04:32;;;;;;;14.35;5.43;;;;;;;;;;5051564;28;20021;-75
2023/08/02 04:06:58;;;;;;;20.23;6.10;;;;;;;;;;5051519;28;20028;-75
2023/08/02 04:09:26;;;;;;;16.90;5.18;;;;;;;;;;5052113;28;20021;-75
2023/08/02 04:11:52;;;;;;;16.38;6.00;;;;;;;;;;5055268;28;20457;-75
2023/08/02 04:14:18;;;;;;;16.05;5.75;;;;;;;;;;5054688;28;20056;-75
2023/08/02 04:16:44;;;;;;;13.20;5.13;;;;;;;;;;5055196;28;20056;-75
2023/08/02 04:19:10;;;;;;;18.52;5.22;;;;;;;;;;5055492;28;20029;-75
2023/08/02 04:21:36;;;;;;;18.05;5.65;;;;;;;;;;5055120;28;20032;-75
2023/08/02 04:24:03;;;;;;;19.05;5.78;;;;;;;;;;5054996;28;20053;-75
2023/08/02 04:26:29;;;;;;;20.73;5.60;;;;;;;;;;5054953;28;20033;-75
2023/08/02 04:28:54;;;;;;;15.27;5.72;;;;;;;;;;5054959;28;20112;-75
2023/08/02 04:31:20;;;;;;;20.08;5.70;;;;;;;;;;5054793;28;20025;-75
2023/08/02 04:33:47;;;;;;;16.15;5.63;;;;;;;;;;5054869;28;20510;-75
2023/08/02 04:36:13;;;;;;;18.25;5.63;;;;;;;;;;5055117;28;20029;-75
2023/08/02 04:38:39;;;;;;;15.13;5.80;;;;;;;;;;5053443;28;20112;-75
2023/08/02 04:41:05;;;;;;;16.98;5.70;;;;;;;;;;5054723;28;20533;-75
2023/08/02 04:43:31;;;;;;;15.30;5.90;;;;;;;;;;5054860;28;20029;-75
2023/08/02 04:45:57;;;;;;;16.55;6.40;;;;;;;;;;5054680;28;20104;-75
2023/08/02 04:48:23;;;;;;;16.05;5.85;;;;;;;;;;5054598;28;20108;-75
2023/08/02 04:50:49;;;;;;;19.67;6.45;;;;;;;;;;5054503;28;20105;-75
2023/08/02 04:53:15;;;;;;;13.82;5.72;;;;;;;;;;5054447;28;20029;-75
2023/08/02 04:55:42;;;;;;;16.80;6.28;;;;;;;;;;5054609;28;20021;-75
2023/08/02 04:58:08;;;;;;;12.77;5.57;;;;;;;;;;5054424;28;20104;-75
2023/08/02 05:00:34;;;;;;;15.10;6.05;;;;;;;;;;5054358;28;20104;-75
2023/08/02 05:03:00;;;;;;;13.32;5.85;;;;;;;;;;5054318;28;20039;-75
2023/08/02 05:05:26;;;;;;;14.07;6.38;;;;;;;;;;5054211;28;20037;-75
2023/08/02 05:07:52;;;;;;;16.85;7.15;;;;;;;;;;5054238;28;20036;-75
2023/08/02 05:10:18;;;;;;;18.52;6.45;;;;;;;;;;5054286;28;20053;-75
2023/08/02 05:12:44;;;;;;;16.50;6.28;;;;;;;;;;5054033;28;20564;-75
2023/08/02 05:15:10;;;;;;;19.33;7.00;;;;;;;;;;5053860;28;20045;-75
2023/08/02 05:17:36;;;;;;;15.70;6.88;;;;;;;;;;5053971;28;20040;-75
2023/08/02 05:20:02;;;;;;;20.42;7.32;;;;;;;;;;5053969;28;20029;-75
2023/08/02 05:22:31;;;;;;;18.67;6.97;;;;;;;;;;5052996;28;20036;-75
2023/08/02 05:24:56;;;;;;;16.63;6.70;;;;;;;;;;5054144;28;20112;-75
2023/08/02 05:27:23;;;;;;;15.95;7.25;;;;;;;;;;5053876;28;20152;-75
2023/08/02 05:29:51;;;;;;;18.35;7.32;;;;;;;;;;5053859;28;20475;-75
2023/08/02 05:32:17;;;;;;;13.68;7.47;;;;;;;;;;5053659;28;20111;-75
2023/08/02 05:34:43;;;;;;;14.05;7.00;;;;;;;;;;5053647;28;20071;-75
2023/08/02 05:37:09;;;;;;;12.70;7.03;;;;;;;;;;5053701;28;20108;-75
2023/08/02 05:39:35;;;;;;;14.07;7.15;;;;;;;;;;5053899;28;20060;-75
2023/08/02 05:42:01;;;;;;;14.50;6.70;;;;;;;;;;5053552;28;20028;-75
2023/08/02 05:44:27;;;;;;;12.93;6.20;;;;;;;;;;5053605;28;20070;-75
2023/08/02 05:46:53;;;;;;;13.40;6.40;;;;;;;;;;5053432;28;20025;-75
2023/08/02 05:49:19;;;;;;;12.93;6.30;;;;;;;;;;5053424;28;20514;-75
2023/08/02 05:51:45;;;;;;;11.68;6.32;;;;;;;;;;5053233;28;20035;-75
2023/08/02 05:54:11;;;;;;;18.80;6.55;;;;;;;;;;5053413;28;20033;-75
2023/08/02 05:56:37;;;;;;;15.75;6.78;;;;;;;;;;5053346;28;20025;-75
2023/08/02 05:59:03;;;;;;;13.23;6.40;;;;;;;;;;5053259;28;20078;-75
2023/08/02 06:01:29;;;;;;;15.00;6.40;;;;;;;;;;5053298;28;20021;-76
2023/08/02 06:03:55;;;;;;;15.27;6.70;;;;;;;;;;5053011;28;20033;-75
2023/08/02 06:06:21;;;;;;;10.90;5.53;;;;;;;;;;5053012;28;20084;-77
2023/08/02 06:08:47;;;;;;;11.70;5.53;;;;;;;;;;5053264;28;20078;-75
2023/08/02 06:11:13;;;;;;;12.02;5.70;;;;;;;;;;5053102;28;20025;-74
2023/08/02 06:13:39;;;;;;;10.95;5.57;;;;;;;;;;5053005;28;20060;-75
2023/08/02 06:16:06;;;;;;;9.82;5.90;;;;;;;;;;5052729;28;20136;-74
2023/08/02 06:18:32;;;;;;;10.85;6.03;;;;;;;;;;5052942;28;20661;-75
2023/08/02 06:20:58;;;;;;;13.30;6.20;;;;;;;;;;5053135;28;20049;-76
2023/08/02 06:23:24;;;;;;;14.32;6.88;;;;;;;;;;5052964;28;20029;-76
2023/08/02 06:25:51;;;;;;;11.50;6.72;;;;;;;;;;5051934;28;20102;-76
2023/08/02 06:28:18;;;;;;;14.02;6.88;;;;;;;;;;5044680;28;20468;-76
2023/08/02 06:30:45;;;;;;;15.10;6.25;;;;;;;;;;5032695;28;20079;-75
2023/08/02 06:33:11;;;;;;;15.25;6.50;;;;;;;;;;5032420;28;20472;-76
2023/08/02 06:35:37;;;;;;;12.93;6.30;;;;;;;;;;5057854;28;20428;-76
2023/08/02 06:38:03;;;;;;;12.32;5.90;;;;;;;;;;5072479;28;20059;-76
2023/08/02 06:40:29;;;;;;;11.70;5.70;;;;;;;;;;5072411;28;20047;-76
2023/08/02 06:42:55;;;;;;;11.43;5.93;;;;;;;;;;5069946;28;20475;-76
2023/08/02 06:45:21;;;;;;;12.18;5.88;;;;;;;;;;5052272;28;20025;-76
2023/08/02 06:47:47;;;;;;;10.77;5.65;;;;;;;;;;5052058;28;20021;-75
2023/08/02 06:50:13;;;;;;;7.70;5.22;;;;;;;;;;5052193;28;20108;-76
2023/08/02 06:52:39;;;;;;;15.55;5.93;;;;;;;;;;5052057;28;20029;-75
2023/08/02 06:55:05;;;;;;;8.50;4.90;;;;;;;;;;5051486;28;20078;-75
2023/08/02 06:57:31;;;;;;;11.20;5.10;;;;;;;;;;5054203;28;20521;-75
2023/08/02 06:59:57;;;;;;;11.30;4.60;;;;;;;;;;5052221;28;20108;-76
2023/08/02 07:02:25;;;;;;;8.15;4.38;;;;;;;;;;5052429;28;20100;-76
2023/08/02 07:04:51;;;;;;;11.02;4.32;;;;;;;;;;5052061;28;20056;-76
2023/08/02 07:07:17;;;;;;;9.18;4.80;;;;;;;;;;5045976;28;20447;-76
2023/08/02 07:09:43;;;;;;;8.75;4.20;;;;;;;;;;5052014;28;20035;-76
2023/08/02 07:12:09;;;;;;;11.20;4.40;;;;;;;;;;5051900;28;20033;-75
2023/08/02 07:14:35;;;;;;;9.05;4.40;;;;;;;;;;5042248;28;20464;-75
2023/08/02 07:17:01;;;;;;;10.20;4.30;;;;;;;;;;5052069;28;20037;-75
2023/08/02 07:19:27;;;;;;;10.82;4.25;;;;;;;;;;5052036;28;20036;-75
2023/08/02 07:21:53;;;;;;;11.82;4.22;;;;;;;;;;5052020;28;20029;-75
2023/08/02 07:24:19;;;;;;;12.10;4.30;;;;;;;;;;5051882;28;20475;-76
2023/08/02 07:26:45;;;;;;;10.82;4.60;;;;;;;;;;5051688;28;20033;-76
2023/08/02 07:29:11;;;;;;;14.52;4.68;;;;;;;;;;5042352;28;20029;-76
2023/08/02 07:31:37;;;;;;;9.00;4.25;;;;;;;;;;5048055;28;20499;-76
2023/08/02 07:34:03;;;;;;;10.38;4.28;;;;;;;;;;5051810;28;20049;-76
2023/08/02 07:36:29;;;;;;;10.35;4.10;;;;;;;;;;5050577;28;20031;-76
2023/08/02 07:38:55;;;;;;;7.60;3.88;;;;;;;;;;5052219;28;20091;-76
2023/08/02 07:41:21;;;;;;;6.25;4.22;;;;;;;;;;5051864;28;20152;-76
2023/08/02 07:43:47;;;;;;;12.30;4.63;;;;;;;;;;5052127;28;20047;-76
2023/08/02 07:46:20;;;;;;;9.02;3.90;;;;;;;;;;5054308;28;20060;-75
2023/08/02 07:48:46;;;;;;;11.20;4.93;;;;;;;;;;5055565;28;20017;-75
2023/08/02 07:51:12;;;;;;;7.72;4.13;;;;;;;;;;5055565;28;20028;-75
2023/08/02 07:53:38;;;;;;;9.55;5.03;;;;;;;;;;5055654;28;20140;-76
2023/08/02 07:56:05;;;;;;;7.95;4.10;;;;;;;;;;5055532;28;20179;-75
2023/08/02 07:58:31;;;;;;;6.10;4.20;;;;;;;;;;5055417;28;20422;-76
2023/08/02 08:00:57;;;;;;;5.28;3.50;;;;;;;;;;5055394;28;20029;-76
2023/08/02 08:03:24;;;;;;;9.07;4.85;;;;;;;;;;5055416;28;20128;-76
2023/08/02 08:05:50;;;;;;;10.90;4.50;;;;;;;;;;5055340;28;20036;-76
2023/08/02 08:08:17;;;;;;;11.55;4.63;;;;;;;;;;5055390;28;20029;-76
2023/08/02 08:10:49;;;;;;;10.20;4.45;;;;;;;;;;5055346;28;20025;-76
2023/08/02 08:13:15;;;;;;;7.82;4.38;;;;;;;;;;5055317;28;20044;-77
2023/08/02 08:15:41;;;;;;;9.73;4.50;;;;;;;;;;5054797;28;20052;-77
2023/08/02 08:18:07;;;;;;;8.77;4.95;;;;;;;;;;5035435;28;20078;-77
2023/08/02 08:20:33;;;;;;;8.80;4.10;;;;;;;;;;5035511;28;20053;-76
2023/08/02 08:22:59;;;;;;;8.18;4.80;;;;;;;;;;5035105;28;20452;-76
2023/08/02 08:25:25;;;;;;;8.32;4.00;;;;;;;;;;5035064;28;20071;-76
2023/08/02 08:27:51;;;;;;;6.25;3.83;;;;;;;;;;5034878;28;20106;-76
2023/08/02 08:30:17;;;;;;;9.13;3.83;;;;;;;;;;5034952;28;20450;-76
2023/08/02 08:32:43;;;;;;;6.53;3.42;;;;;;;;;;5035053;28;20022;-76
2023/08/02 08:35:09;;;;;;;6.45;3.42;;;;;;;;;;5045875;28;20631;-76
2023/08/02 08:37:36;;;;;;;6.00;3.58;;;;;;;;;;5054690;28;20028;-76
2023/08/02 08:40:02;;;;;;;7.43;3.35;;;;;;;;;;5055148;28;20025;-76
2023/08/02 08:42:28;;;;;;;6.53;3.80;;;;;;;;;;5054581;28;20029;-76
2023/08/02 08:44:57;;;;;;;7.65;2.92;;;;;;;;;;5054537;28;20021;-76
2023/08/02 08:47:24;;;;;;;5.60;2.67;;;;;;;;;;5054562;28;20407;-76
2023/08/02 08:49:51;;;;;;;9.30;3.53;;;;;;;;;;5054353;28;20456;-76
2023/08/02 08:52:18;;;;;;;6.75;3.38;;;;;;;;;;5054593;28;20029;-76
2023/08/02 08:54:45;;;;;;;4.65;2.80;;;;;;;;;;5054400;28;20040;-76
2023/08/02 08:57:12;;;;;;;8.55;3.15;;;;;;;;;;5051942;28;20021;-77
2023/08/02 08:59:39;;;;;;;4.57;2.67;;;;;;;;;;5047259;28;20464;-76
2023/08/02 09:02:07;;;;;;;5.22;2.78;;;;;;;;;;5038559;28;20406;-77
2023/08/02 09:04:33;;;;;;;4.60;2.72;;;;;;;;;;5047639;28;20033;-77
2023/08/02 09:06:59;;;;;;;4.38;2.60;;;;;;;;;;5054058;28;20071;-77
2023/08/02 09:09:25;;;;;;;6.90;2.60;;;;;;;;;;5045990;28;20075;-77
2023/08/02 09:11:51;;;;;;;4.28;2.60;;;;;;;;;;5033991;28;20033;-77
2023/08/02 09:14:17;;;;;;;4.28;2.45;;;;;;;;;;5033921;28;20346;-76
2023/08/02 09:16:58;;;;;;;7.28;3.03;;;;;;;;;;5034137;28;20380;-77
2023/08/02 09:19:28;;;;;;;5.13;3.03;;;;;;;;;;5033943;28;20022;-76
2023/08/02 09:22:13;;;;;;;3.60;2.85;;;;;;;;;;5035401;28;20025;-77
2023/08/02 09:24:40;;;;;;;3.47;2.97;;;;;;;;;;5053801;28;20029;-77
2023/08/02 09:27:08;;;;;;;5.90;3.28;;;;;;;;;;5053737;28;20021;-77
2023/08/02 09:29:50;;;;;;;3.92;2.90;;;;;;;;;;5053670;28;20342;-77
2023/08/02 09:32:17;;;;;;;4.15;3.53;;;;;;;;;;5053583;28;20686;-76
2023/08/02 09:34:43;;;;;;;6.18;4.10;;;;;;;;;;5053629;28;20021;-76
2023/08/02 09:37:11;;;;;;;6.13;4.65;;;;;;;;;;5053591;28;20021;-76
2023/08/02 09:39:37;;;;;;;5.20;4.03;;;;;;;;;;5051327;28;20383;-77
2023/08/02 09:42:14;;;;;;;5.07;4.57;;;;;;;;;;5052418;28;20040;-76
2023/08/02 09:44:50;;;;;;;6.72;4.22;;;;;;;;;;5053467;28;20028;-77
2023/08/02 09:47:18;;;;;;;6.22;4.07;;;;;;;;;;5065709;28;20031;-76
2023/08/02 09:49:44;;;;;;;7.35;4.50;;;;;;;;;;5062676;28;20104;-77
2023/08/02 09:52:10;;;;;;;4.80;4.28;;;;;;;;;;5053278;28;20464;-76
2023/08/02 09:54:36;;;;;;;6.63;4.72;;;;;;;;;;5053257;28;20029;-76
2023/08/02 09:57:03;;;;;;;4.70;4.20;;;;;;;;;;5053249;28;20401;-75
2023/08/02 09:59:30;;;;;;;6.00;3.85;;;;;;;;;;5052889;28;20320;-75
2023/08/02 10:01:57;;;;;;;5.90;3.75;;;;;;;;;;5052795;28;20079;-76
2023/08/02 10:04:24;;;;;;;5.55;3.65;;;;;;;;;;5053144;28;20020;-76
2023/08/02 10:06:53;;;;;;;5.03;3.67;;;;;;;;;;5053134;28;20025;-76
2023/08/02 10:09:38;;;;;;;4.50;3.95;;;;;;;;;;5052792;28;20474;-76
2023/08/02 10:12:07;;;;;;;6.22;4.57;;;;;;;;;;5033010;28;20029;-76
2023/08/02 10:14:33;;;;;;;4.57;3.85;;;;;;;;;;5032932;28;20046;-76
2023/08/02 10:17:01;;;;;;;5.70;3.78;;;;;;;;;;5032926;28;20029;-76
2023/08/02 10:19:28;;;;;;;5.32;3.72;;;;;;;;;;5032953;28;20018;-76
2023/08/02 10:21:57;;;;;;;3.42;3.13;;;;;;;;;;5032673;28;20476;-76
2023/08/02 10:24:25;;;;;;;3.50;3.13;;;;;;;;;;5033197;28;20113;-76
2023/08/02 10:26:51;;;;;;;3.60;3.13;;;;;;;;;;5032850;28;20029;-76
2023/08/02 10:29:18;;;;;;;3.63;3.33;;;;;;;;;;5032791;28;20028;-76
2023/08/02 10:31:44;;;;;;;3.67;3.38;;;;;;;;;;5032407;28;20037;-76
2023/08/02 10:34:43;;;;;;;4.97;3.20;;;;;;;;;;5033016;28;20447;-76
2023/08/02 10:37:09;;;;;;;2.75;2.55;;;;;;;;;;5020703;28;20057;-76
2023/08/02 10:39:52;;;;;;;2.90;2.58;;;;;;;;;;5032649;28;20025;-76
2023/08/02 10:42:20;;;;;;;2.65;2.45;;;;;;;;;;5032738;28;20567;-76
2023/08/02 10:44:55;;;;;;;2.38;1.75;;;;;;;;;;5032988;28;20380;-75
2023/08/02 10:47:24;;;;;;;2.63;2.05;;;;;;;;;;5032474;28;20103;-75
2023/08/02 10:49:51;;;;;;;2.23;2.03;;;;;;;;;;5033011;28;20022;-75
2023/08/02 10:52:24;;;;;;;2.15;1.95;;;;;;;;;;5032444;28;20041;-75
2023/08/02 10:55:07;;;;;;;2.50;2.30;;;;;;;;;;5032826;28;20032;-75
2023/08/02 10:57:34;;;;;;;3.53;3.22;;;;;;;;;;5032749;28;20021;-75
2023/08/02 11:00:00;;;;;;;2.20;2.00;;;;;;;;;;5032423;28;20112;-75
2023/08/02 11:02:26;;;;;;;3.10;2.70;;;;;;;;;;5032358;28;20361;-75
2023/08/02 11:04:53;;;;;;;3.38;2.45;;;;;;;;;;5032446;28;20025;-75
2023/08/02 11:07:20;;;;;;;2.70;2.47;;;;;;;;;;5032388;28;20519;-75
2023/08/02 11:09:47;;;;;;;2.50;2.30;;;;;;;;;;5032434;28;20536;-76
2023/08/02 11:12:17;;;;;;;2.47;2.28;;;;;;;;;;5032229;28;20036;-76
2023/08/02 11:14:43;;;;;;;;;;;;;;;;;;5032625;28;20072;-76
2023/08/02 11:17:09;;;;;;;2.30;2.10;;;;;;;;;;5032302;28;19979;-76
2023/08/02 11:19:38;;;;;;;2.30;2.13;;;;;;;;;;5032689;28;20030;-76
2023/08/02 11:22:04;;;;;;;2.20;2.00;;;;;;;;;;5036656;28;20033;-75
2023/08/02 11:24:57;;;;;;;2.10;1.90;;;;;;;;;;5036220;28;20037;-76
2023/08/02 11:27:24;;;;;;;2.25;2.15;;;;;;;;;;5035312;28;20532;-76
2023/08/02 11:30:02;;;;;;;2.38;2.17;;;;;;;;;;5036364;28;20060;-76
2023/08/02 11:32:28;;;;;;;3.28;2.50;;;;;;;;;;5036119;28;20144;-76
2023/08/02 11:34:54;;;;;;;2.40;2.20;;;;;;;;;;5036200;28;20032;-76
2023/08/02 11:37:22;;;;;;;2.60;2.40;;;;;;;;;;5036287;28;20105;-75
2023/08/02 11:39:52;;;;;;;2.50;2.30;;;;;;;;;;5036307;28;20083;-75
2023/08/02 11:42:18;;;;;;;2.80;2.60;;;;;;;;;;5036012;28;20453;-75
2023/08/02 11:44:44;;;;;;;2.20;2.10;;;;;;;;;;5036134;28;20079;-75
2023/08/02 11:47:11;;;;;;;2.83;2.63;;;;;;;;;;5035877;28;20095;-76
2023/08/02 11:49:50;;;;;;;2.90;2.70;;;;;;;;;;5035748;28;20508;-76
2023/08/02 11:52:29;;;;;;;2.90;2.70;;;;;;;;;;5035677;28;20049;-75
2023/08/02 11:54:56;;;;;;;3.80;3.00;;;;;;;;;;5035808;28;20029;-75
2023/08/02 11:57:22;;;;;;;2.80;2.60;;;;;;;;;;5035679;28;20483;-75
2023/08/02 11:59:49;;;;;;;3.85;2.55;;;;;;;;;;5035628;28;20022;-75
2023/08/02 12:02:25;;;;;;;4.30;3.40;;;;;;;;;;5035670;28;20025;-75
2023/08/02 12:04:51;;;;;;;3.40;3.10;;;;;;;;;;5035602;28;20017;-76
2023/08/02 12:07:30;;;;;;;3.40;3.10;;;;;;;;;;5035397;28;20053;-76
2023/08/02 12:09:57;;;;;;;3.10;2.73;;;;;;;;;;5035585;28;20029;-75
2023/08/02 12:12:29;;;;;;;2.97;2.78;;;;;;;;;;5035329;28;20321;-76
2023/08/02 12:14:55;;;;;;;3.53;2.78;;;;;;;;;;5034589;28;20037;-76
2023/08/02 12:17:21;;;;;;;3.90;2.05;;;;;;;;;;5035265;28;20656;-76
2023/08/02 12:19:48;;;;;;;3.72;1.88;;;;;;;;;;5035212;28;20116;-75
2023/08/02 12:22:14;;;;;;;2.75;1.83;;;;;;;;;;5035169;28;20053;-74
2023/08/02 12:24:41;;;;;;;3.80;2.10;;;;;;;;;;5035017;28;20026;-75
2023/08/02 12:27:14;;;;;;;3.80;1.80;;;;;;;;;;5035156;28;20420;-75
2023/08/02 12:29:41;;;;;;;2.30;1.40;;;;;;;;;;5035279;28;20022;-75
2023/08/02 12:32:08;;;;;;;2.95;1.55;;;;;;;;;;5034679;28;20023;-75
2023/08/02 12:34:36;;;;;;;7.28;1.58;;;;;;;;;;5034903;28;20518;-75
2023/08/02 12:37:02;;;;;;;3.78;1.50;;;;;;;;;;5035204;28;20373;-75
2023/08/02 12:39:28;;;;;;;4.45;1.40;;;;;;;;;;5034903;28;20537;-75
2023/08/02 12:41:54;;;;;;;4.47;1.77;;;;;;;;;;5034869;28;20411;-75
2023/08/02 12:44:20;;;;;;;5.45;1.98;;;;;;;;;;5034657;28;20030;-75
2023/08/02 12:46:46;;;;;;;5.50;1.80;;;;;;;;;;5034771;28;20097;-75
2023/08/02 12:49:12;;;;;;;3.92;1.50;;;;;;;;;;5049190;28;20131;-75
2023/08/02 12:51:38;;;;;;;4.35;2.00;;;;;;;;;;5054735;28;20029;-75
2023/08/02 12:54:05;;;;;;;4.88;1.30;;;;;;;;;;5054979;28;20021;-75
2023/08/02 12:56:32;;;;;;;3.92;1.27;;;;;;;;;;5054493;28;20395;-75
2023/08/02 12:58:59;;;;;;;4.25;1.02;;;;;;;;;;5054758;28;20013;-75
2023/08/02 13:01:25;;;;;;;3.42;1.10;;;;;;;;;;5054271;28;20029;-75
2023/08/02 13:03:51;;;;;;;3.25;0.80;;;;;;;;;;5053805;28;20029;-75
2023/08/02 13:06:17;;;;;;;4.65;1.02;;;;;;;;;;5054303;28;20083;-76
2023/08/02 13:08:43;;;;;;;6.05;0.98;;;;;;;;;;5054160;28;20353;-75
2023/08/02 13:11:09;;;;;;;6.32;1.10;;;;;;;;;;5054206;28;20032;-76
2023/08/02 13:13:35;;;;;;;5.50;0.70;;;;;;;;;;5054122;28;20040;-75
2023/08/02 13:16:01;;;;;;;5.72;1.20;;;;;;;;;;5053970;28;20052;-75
2023/08/02 13:18:27;;;;;;;3.45;0.80;;;;;;;;;;5054291;28;20428;-75
2023/08/02 13:20:53;;;;;;;4.35;0.88;;;;;;;;;;5054103;28;20632;-75
2023/08/02 13:23:19;;;;;;;5.05;1.08;;;;;;;;;;5054181;28;20024;-75
2023/08/02 13:25:45;;;;;;;6.85;1.52;;;;;;;;;;5054094;28;20017;-75
2023/08/02 13:28:12;;;;;;;6.88;1.40;;;;;;;;;;5053954;28;20107;-75
2023/08/02 13:30:38;;;;;;;8.25;1.13;;;;;;;;;;5054181;28;20024;-75
2023/08/02 13:33:05;;;;;;;4.03;1.08;;;;;;;;;;5053560;28;20333;-75
2023/08/02 13:35:31;;;;;;;6.10;1.33;;;;;;;;;;5054321;28;20032;-75
2023/08/02 13:37:57;;;;;;;6.38;1.65;;;;;;;;;;5055059;28;20025;-75
2023/08/02 13:40:23;;;;;;;7.10;1.20;;;;;;;;;;5053705;28;20059;-75
2023/08/02 13:42:50;;;;;;;7.15;1.55;;;;;;;;;;5052623;28;20025;-75
2023/08/02 13:45:16;;;;;;;7.90;1.48;;;;;;;;;;5053473;28;20025;-75
2023/08/02 13:47:42;;;;;;;7.72;1.77;;;;;;;;;;5053387;28;20033;-75
2023/08/02 13:50:08;;;;;;;7.03;1.33;;;;;;;;;;5053541;28;20032;-75
2023/08/02 13:52:35;;;;;;;4.40;1.15;;;;;;;;;;5053172;28;20025;-75
2023/08/02 13:55:01;;;;;;;4.57;1.10;;;;;;;;;;5053844;28;20029;-75
2023/08/02 13:57:27;;;;;;;8.07;1.40;;;;;;;;;;5053317;28;20021;-74
2023/08/02 13:59:53;;;;;;;7.03;1.40;;;;;;;;;;5053651;28;20083;-74
2023/08/02 14:02:19;;;;;;;10.70;1.70;;;;;;;;;;5053467;28;20036;-74
2023/08/02 14:04:45;;;;;;;12.02;2.05;;;;;;;;;;5053079;28;20025;-74
2023/08/02 14:07:11;;;;;;;9.55;1.65;;;;;;;;;;5053199;28;20032;-74
2023/08/02 14:09:40;;;;;;;10.15;1.58;;;;;;;;;;5053174;28;20460;-75
2023/08/02 14:12:06;;;;;;;11.25;1.70;;;;;;;;;;5052986;28;20384;-75
2023/08/02 14:14:32;;;;;;;7.85;1.60;;;;;;;;;;5052843;28;20049;-75
2023/08/02 14:16:58;;;;;;;11.57;1.98;;;;;;;;;;5053005;28;20033;-75
2023/08/02 14:19:24;;;;;;;8.93;1.90;;;;;;;;;;5053090;28;20668;-74
2023/08/02 14:21:50;;;;;;;6.80;1.63;;;;;;;;;;5053853;28;20655;-75
2023/08/02 14:24:16;;;;;;;7.28;1.30;;;;;;;;;;5053354;28;20029;-75
2023/08/02 14:26:43;;;;;;;7.80;1.80;;;;;;;;;;5052914;28;20029;-75
2023/08/02 14:29:09;;;;;;;8.98;1.52;;;;;;;;;;5053397;28;20422;-75
2023/08/02 14:31:35;;;;;;;9.25;1.70;;;;;;;;;;5052925;28;20533;-75
2023/08/02 14:34:01;;;;;;;12.80;1.88;;;;;;;;;;5052522;28;20107;-75
2023/08/02 14:36:27;;;;;;;10.65;2.25;;;;;;;;;;5052169;28;20024;-75